Data

From:  To:  PST   UTC
Description Unit Station From To Min. Max. Avg.
Water Temperature at Buoy °C Buoy 2021-09-18 08:51 2021-10-18 01:27 8.04 19.44 11.41
Weather: Air Temperature at Buoy °C Buoy 2021-09-18 09:02 2021-10-18 08:47 5.31 23.87 13.74
Wind Speed at Buoy m/s Buoy 2021-09-18 09:02 2021-10-18 08:47 0 9.66 3.66
Wind Direction at Buoy Deg. Buoy 2021-09-18 09:02 2021-10-18 08:47 0.2 359.8 192.69
Weather: Air Pressure at Buoy mb Buoy 2021-09-18 09:02 2021-10-18 08:47 1003.78 1028.99 1017.83
Weather: Relative Humidity at Buoy % Buoy 2021-09-18 09:02 2021-10-18 08:47 37.82 94.2 70.7
Weather: Solar Radiation at Buoy W/m² Buoy 2021-09-18 09:02 2021-10-18 08:47 0 914 96.53
Flow at Cedar River ft³/s Cedar River 2021-09-18 09:00 2021-10-18 08:45 196 506 341.95
Water Temperature at Cedar River °C Cedar River 2021-09-18 09:00 2021-10-18 08:45 8.8 15 12.14
Stage at 37A ft 37A 2021-09-18 09:00 2021-10-18 08:00 1.18 2.36 1.34
Flow at 37A ft³/s 37A 2021-09-18 09:00 2021-10-18 08:00 3.13 54.25 5.44
Flow at Sammish River ft³/s Sammamish River-51T 2021-09-18 09:00 2021-10-18 08:00 16.29 17.03 16.53
Stage at 34A ft 34a 2021-09-18 09:00 2021-10-18 08:00 0.8 2 0.99
Flow at 34A ft³/s 34a 2021-09-18 09:00 2021-10-18 08:00 1.1 27 2.92
Stage at 35C ft 35C 2021-09-18 09:00 2021-10-18 08:00 2.95 3.53 3.08
Flow at 35C ft³/s 35C 2021-09-18 09:00 2021-10-18 08:00 7.3 36.25 12.1
Water Temperature at 35C °C 35C 2021-09-18 09:00 2021-10-18 08:00 10.01 14.83 13.02
Stage at COB-06C ft COB-06C 2021-09-18 09:00 2021-10-18 08:00 0.37 1.19 0.46
Flow at COB-06C ft³/s COB-06C 2021-09-18 09:00 2021-10-18 08:00 2 39.75 4.2
Stage at 27A ft 27a 2021-09-18 09:00 2021-10-18 08:00 3.13 4.5 3.3
Flow at 27A ft³/s 27a 2021-09-18 09:00 2021-10-18 08:00 2.3 82 6.55
Water Temperature at 27A °C 27a 2021-09-18 09:00 2021-10-18 08:00 9.09 15.64 12.93
Weather: Air Temperature at 27A °C 27a 2021-09-18 09:00 2021-10-18 08:00 4.55 20.96 12.5
Stage at 58A ft 58a 2021-09-18 09:00 2021-10-18 08:00 1.32 2.09 1.49
Flow at 58A ft³/s 58a 2021-09-18 09:00 2021-10-18 08:00 3.42 39.42 7.12
Water Temperature at 58A °C 58a 2021-09-18 09:00 2021-10-18 08:00 9.98 15.83 13.33
Weather: Air Temperature at 58A °C 58a 2021-09-18 09:00 2021-10-18 08:00 3.76 23.93 12.4
Stage at Lock ft Lock 2021-09-18 09:00 2021-10-18 08:00 20.09 20.78 20.44
Wind Speed at Tacoma m/s Tacoma Airport 2021-09-18 09:02 2021-10-18 08:47 0 9.66 3.66
Wind Direction at Tacoma Deg. Tacoma Airport 2021-09-18 09:02 2021-10-18 08:47 0.2 359.8 192.69
Cloud Cover at Tacoma Tacoma Airport 2021-09-18 08:53 2021-10-18 05:53 0 1 0.73